sensor_id;sensor_type;location;lat;lon;timestamp;P1;durP1;ratioP1;P2;durP2;ratioP2
7025;SDS011;3554;42.132;24.786;2023-03-14T00:00:25;6.70;;;3.63;;
7025;SDS011;3554;42.132;24.786;2023-03-14T00:02:52;3.80;;;3.60;;
7025;SDS011;3554;42.132;24.786;2023-03-14T00:05:19;3.37;;;3.07;;
7025;SDS011;3554;42.132;24.786;2023-03-14T00:07:46;3.60;;;3.00;;
7025;SDS011;3554;42.132;24.786;2023-03-14T00:10:13;4.40;;;3.27;;
7025;SDS011;3554;42.132;24.786;2023-03-14T00:12:41;3.30;;;3.10;;
7025;SDS011;3554;42.132;24.786;2023-03-14T00:15:08;3.50;;;3.20;;
7025;SDS011;3554;42.132;24.786;2023-03-14T00:17:38;3.00;;;2.83;;
7025;SDS011;3554;42.132;24.786;2023-03-14T00:20:05;3.20;;;3.00;;
7025;SDS011;3554;42.132;24.786;2023-03-14T00:22:35;3.10;;;2.80;;
7025;SDS011;3554;42.132;24.786;2023-03-14T00:25:02;3.60;;;3.27;;
7025;SDS011;3554;42.132;24.786;2023-03-14T00:27:30;3.33;;;3.03;;
7025;SDS011;3554;42.132;24.786;2023-03-14T00:29:57;3.67;;;2.57;;
7025;SDS011;3554;42.132;24.786;2023-03-14T00:32:24;6.53;;;4.27;;
7025;SDS011;3554;42.132;24.786;2023-03-14T00:34:52;9.23;;;4.20;;
7025;SDS011;3554;42.132;24.786;2023-03-14T00:37:19;3.87;;;3.33;;
7025;SDS011;3554;42.132;24.786;2023-03-14T00:39:46;7.70;;;3.57;;
7025;SDS011;3554;42.132;24.786;2023-03-14T00:42:13;3.30;;;3.10;;
7025;SDS011;3554;42.132;24.786;2023-03-14T00:44:39;3.30;;;2.97;;
7025;SDS011;3554;42.132;24.786;2023-03-14T00:47:06;4.07;;;3.73;;
7025;SDS011;3554;42.132;24.786;2023-03-14T00:49:33;4.90;;;4.20;;
7025;SDS011;3554;42.132;24.786;2023-03-14T00:52:01;3.63;;;3.37;;
7025;SDS011;3554;42.132;24.786;2023-03-14T00:54:28;5.13;;;3.37;;
7025;SDS011;3554;42.132;24.786;2023-03-14T00:56:55;4.30;;;3.90;;
7025;SDS011;3554;42.132;24.786;2023-03-14T00:59:22;5.93;;;3.47;;
7025;SDS011;3554;42.132;24.786;2023-03-14T01:01:49;5.50;;;3.60;;
7025;SDS011;3554;42.132;24.786;2023-03-14T01:04:15;5.20;;;3.83;;
7025;SDS011;3554;42.132;24.786;2023-03-14T01:06:42;4.10;;;3.73;;
7025;SDS011;3554;42.132;24.786;2023-03-14T01:09:10;6.03;;;3.60;;
7025;SDS011;3554;42.132;24.786;2023-03-14T01:11:37;8.30;;;3.47;;
7025;SDS011;3554;42.132;24.786;2023-03-14T01:14:04;3.90;;;3.50;;
7025;SDS011;3554;42.132;24.786;2023-03-14T01:16:34;4.20;;;3.77;;
7025;SDS011;3554;42.132;24.786;2023-03-14T01:19:01;3.73;;;3.53;;
7025;SDS011;3554;42.132;24.786;2023-03-14T01:21:29;4.13;;;3.70;;
7025;SDS011;3554;42.132;24.786;2023-03-14T01:23:58;4.23;;;3.93;;
7025;SDS011;3554;42.132;24.786;2023-03-14T01:26:30;4.50;;;4.20;;
7025;SDS011;3554;42.132;24.786;2023-03-14T01:28:58;4.60;;;4.20;;
7025;SDS011;3554;42.132;24.786;2023-03-14T01:31:26;4.87;;;4.10;;
7025;SDS011;3554;42.132;24.786;2023-03-14T01:33:53;4.60;;;4.03;;
7025;SDS011;3554;42.132;24.786;2023-03-14T01:36:20;4.40;;;4.20;;
7025;SDS011;3554;42.132;24.786;2023-03-14T01:38:47;3.97;;;3.77;;
7025;SDS011;3554;42.132;24.786;2023-03-14T01:41:15;4.23;;;3.93;;
7025;SDS011;3554;42.132;24.786;2023-03-14T01:43:45;4.60;;;4.20;;
7025;SDS011;3554;42.132;24.786;2023-03-14T01:49:02;4.13;;;3.70;;
7025;SDS011;3554;42.132;24.786;2023-03-14T01:51:34;6.27;;;4.20;;
7025;SDS011;3554;42.132;24.786;2023-03-14T01:54:05;4.77;;;4.37;;
7025;SDS011;3554;42.132;24.786;2023-03-14T01:56:36;4.33;;;3.97;;
7025;SDS011;3554;42.132;24.786;2023-03-14T01:59:06;5.53;;;5.13;;
7025;SDS011;3554;42.132;24.786;2023-03-14T02:01:36;4.37;;;3.97;;
7025;SDS011;3554;42.132;24.786;2023-03-14T02:04:06;5.13;;;4.23;;
7025;SDS011;3554;42.132;24.786;2023-03-14T02:06:37;4.93;;;3.80;;
7025;SDS011;3554;42.132;24.786;2023-03-14T02:09:10;6.00;;;4.17;;
7025;SDS011;3554;42.132;24.786;2023-03-14T02:11:37;5.07;;;4.67;;
7025;SDS011;3554;42.132;24.786;2023-03-14T02:14:05;6.13;;;5.33;;
7025;SDS011;3554;42.132;24.786;2023-03-14T02:16:36;8.40;;;4.67;;
7025;SDS011;3554;42.132;24.786;2023-03-14T02:19:03;10.47;;;6.00;;
7025;SDS011;3554;42.132;24.786;2023-03-14T02:21:34;16.97;;;6.50;;
7025;SDS011;3554;42.132;24.786;2023-03-14T02:24:13;8.53;;;6.20;;
7025;SDS011;3554;42.132;24.786;2023-03-14T02:29:41;8.00;;;5.90;;
7025;SDS011;3554;42.132;24.786;2023-03-14T02:32:13;8.93;;;6.27;;
7025;SDS011;3554;42.132;24.786;2023-03-14T02:34:42;6.47;;;5.80;;
7025;SDS011;3554;42.132;24.786;2023-03-14T02:37:12;12.30;;;7.03;;
7025;SDS011;3554;42.132;24.786;2023-03-14T02:39:41;7.07;;;6.47;;
7025;SDS011;3554;42.132;24.786;2023-03-14T02:42:11;8.53;;;6.63;;
7025;SDS011;3554;42.132;24.786;2023-03-14T02:44:48;7.00;;;6.30;;
7025;SDS011;3554;42.132;24.786;2023-03-14T02:47:18;9.97;;;6.97;;
7025;SDS011;3554;42.132;24.786;2023-03-14T02:49:47;13.07;;;7.13;;
7025;SDS011;3554;42.132;24.786;2023-03-14T02:52:14;11.27;;;7.13;;
7025;SDS011;3554;42.132;24.786;2023-03-14T02:54:41;12.97;;;7.83;;
7025;SDS011;3554;42.132;24.786;2023-03-14T02:57:08;8.53;;;6.70;;
7025;SDS011;3554;42.132;24.786;2023-03-14T02:59:35;11.23;;;7.07;;
7025;SDS011;3554;42.132;24.786;2023-03-14T03:02:03;7.50;;;6.90;;
7025;SDS011;3554;42.132;24.786;2023-03-14T03:04:29;9.33;;;6.70;;
7025;SDS011;3554;42.132;24.786;2023-03-14T03:06:56;8.47;;;7.57;;
7025;SDS011;3554;42.132;24.786;2023-03-14T03:09:23;8.13;;;6.70;;
7025;SDS011;3554;42.132;24.786;2023-03-14T03:11:50;8.07;;;7.40;;
7025;SDS011;3554;42.132;24.786;2023-03-14T03:14:17;7.10;;;6.50;;
7025;SDS011;3554;42.132;24.786;2023-03-14T03:16:43;8.67;;;6.60;;
7025;SDS011;3554;42.132;24.786;2023-03-14T03:19:11;8.33;;;6.43;;
7025;SDS011;3554;42.132;24.786;2023-03-14T03:21:38;7.57;;;6.77;;
7025;SDS011;3554;42.132;24.786;2023-03-14T03:24:05;8.07;;;6.17;;
7025;SDS011;3554;42.132;24.786;2023-03-14T03:26:33;8.20;;;7.37;;
7025;SDS011;3554;42.132;24.786;2023-03-14T03:29:00;8.77;;;6.37;;
7025;SDS011;3554;42.132;24.786;2023-03-14T03:31:26;12.53;;;7.37;;
7025;SDS011;3554;42.132;24.786;2023-03-14T03:33:53;9.90;;;6.63;;
7025;SDS011;3554;42.132;24.786;2023-03-14T03:36:22;12.80;;;7.13;;
7025;SDS011;3554;42.132;24.786;2023-03-14T03:38:49;8.93;;;8.07;;
7025;SDS011;3554;42.132;24.786;2023-03-14T03:41:16;7.47;;;6.83;;
7025;SDS011;3554;42.132;24.786;2023-03-14T03:43:43;7.67;;;6.80;;
7025;SDS011;3554;42.132;24.786;2023-03-14T03:46:09;11.40;;;7.73;;
7025;SDS011;3554;42.132;24.786;2023-03-14T03:48:36;7.87;;;6.97;;
7025;SDS011;3554;42.132;24.786;2023-03-14T03:51:03;7.97;;;6.77;;
7025;SDS011;3554;42.132;24.786;2023-03-14T03:53:31;12.77;;;7.33;;
7025;SDS011;3554;42.132;24.786;2023-03-14T03:55:58;10.53;;;7.07;;
7025;SDS011;3554;42.132;24.786;2023-03-14T03:58:26;9.27;;;7.40;;
7025;SDS011;3554;42.132;24.786;2023-03-14T04:00:52;9.37;;;7.33;;
7025;SDS011;3554;42.132;24.786;2023-03-14T04:03:20;6.70;;;6.20;;
7025;SDS011;3554;42.132;24.786;2023-03-14T04:05:46;7.57;;;6.80;;
7025;SDS011;3554;42.132;24.786;2023-03-14T04:08:24;9.13;;;6.80;;
7025;SDS011;3554;42.132;24.786;2023-03-14T04:10:55;9.40;;;7.30;;
7025;SDS011;3554;42.132;24.786;2023-03-14T04:13:23;12.23;;;6.50;;
7025;SDS011;3554;42.132;24.786;2023-03-14T04:15:50;9.20;;;6.80;;
7025;SDS011;3554;42.132;24.786;2023-03-14T04:18:17;10.23;;;7.40;;
7025;SDS011;3554;42.132;24.786;2023-03-14T04:20:44;7.67;;;6.50;;
7025;SDS011;3554;42.132;24.786;2023-03-14T04:23:11;11.87;;;7.70;;
7025;SDS011;3554;42.132;24.786;2023-03-14T04:25:38;8.30;;;7.23;;
7025;SDS011;3554;42.132;24.786;2023-03-14T04:28:06;9.20;;;6.50;;
7025;SDS011;3554;42.132;24.786;2023-03-14T04:30:33;8.23;;;6.87;;
7025;SDS011;3554;42.132;24.786;2023-03-14T04:33:00;7.97;;;7.27;;
7025;SDS011;3554;42.132;24.786;2023-03-14T04:35:27;7.80;;;7.03;;
7025;SDS011;3554;42.132;24.786;2023-03-14T04:37:56;8.43;;;6.67;;
7025;SDS011;3554;42.132;24.786;2023-03-14T04:40:23;10.87;;;7.00;;
7025;SDS011;3554;42.132;24.786;2023-03-14T04:42:49;10.57;;;6.93;;
7025;SDS011;3554;42.132;24.786;2023-03-14T04:45:17;7.97;;;7.27;;
7025;SDS011;3554;42.132;24.786;2023-03-14T04:47:44;8.50;;;7.67;;
7025;SDS011;3554;42.132;24.786;2023-03-14T04:50:11;8.00;;;7.40;;
7025;SDS011;3554;42.132;24.786;2023-03-14T04:52:38;10.43;;;8.13;;
7025;SDS011;3554;42.132;24.786;2023-03-14T04:55:05;8.23;;;7.40;;
7025;SDS011;3554;42.132;24.786;2023-03-14T04:57:32;9.80;;;8.30;;
7025;SDS011;3554;42.132;24.786;2023-03-14T04:59:59;9.73;;;7.77;;
7025;SDS011;3554;42.132;24.786;2023-03-14T05:02:27;11.83;;;7.67;;
7025;SDS011;3554;42.132;24.786;2023-03-14T05:04:53;8.53;;;7.67;;
7025;SDS011;3554;42.132;24.786;2023-03-14T05:07:20;9.07;;;7.57;;
7025;SDS011;3554;42.132;24.786;2023-03-14T05:09:47;14.10;;;7.93;;
7025;SDS011;3554;42.132;24.786;2023-03-14T05:12:14;8.77;;;7.47;;
7025;SDS011;3554;42.132;24.786;2023-03-14T05:14:41;9.50;;;8.60;;
7025;SDS011;3554;42.132;24.786;2023-03-14T05:17:07;15.63;;;10.23;;
7025;SDS011;3554;42.132;24.786;2023-03-14T05:19:36;13.10;;;9.43;;
7025;SDS011;3554;42.132;24.786;2023-03-14T05:22:03;14.13;;;9.60;;
7025;SDS011;3554;42.132;24.786;2023-03-14T05:24:29;12.20;;;9.10;;
7025;SDS011;3554;42.132;24.786;2023-03-14T05:26:56;14.47;;;9.70;;
7025;SDS011;3554;42.132;24.786;2023-03-14T05:29:23;12.37;;;9.07;;
7025;SDS011;3554;42.132;24.786;2023-03-14T05:31:50;14.07;;;10.10;;
7025;SDS011;3554;42.132;24.786;2023-03-14T05:34:16;15.13;;;8.80;;
7025;SDS011;3554;42.132;24.786;2023-03-14T05:36:45;12.50;;;8.90;;
7025;SDS011;3554;42.132;24.786;2023-03-14T05:39:11;13.07;;;9.50;;
7025;SDS011;3554;42.132;24.786;2023-03-14T05:41:38;19.03;;;10.30;;
7025;SDS011;3554;42.132;24.786;2023-03-14T05:44:05;26.77;;;12.07;;
7025;SDS011;3554;42.132;24.786;2023-03-14T05:46:32;18.20;;;12.27;;
7025;SDS011;3554;42.132;24.786;2023-03-14T05:48:59;19.10;;;12.93;;
7025;SDS011;3554;42.132;24.786;2023-03-14T05:51:25;24.20;;;14.93;;
7025;SDS011;3554;42.132;24.786;2023-03-14T05:53:54;26.80;;;17.40;;
7025;SDS011;3554;42.132;24.786;2023-03-14T05:56:21;23.97;;;17.47;;
7025;SDS011;3554;42.132;24.786;2023-03-14T05:58:47;29.53;;;18.90;;
7025;SDS011;3554;42.132;24.786;2023-03-14T06:01:14;30.53;;;20.40;;
7025;SDS011;3554;42.132;24.786;2023-03-14T06:03:41;35.33;;;20.00;;
7025;SDS011;3554;42.132;24.786;2023-03-14T06:06:08;28.90;;;18.03;;
7025;SDS011;3554;42.132;24.786;2023-03-14T06:08:34;21.83;;;16.70;;
7025;SDS011;3554;42.132;24.786;2023-03-14T06:11:03;19.50;;;15.10;;
7025;SDS011;3554;42.132;24.786;2023-03-14T06:13:30;20.90;;;15.33;;
7025;SDS011;3554;42.132;24.786;2023-03-14T06:15:57;16.97;;;12.50;;
7025;SDS011;3554;42.132;24.786;2023-03-14T06:18:24;15.30;;;11.30;;
7025;SDS011;3554;42.132;24.786;2023-03-14T06:20:53;11.90;;;10.50;;
7025;SDS011;3554;42.132;24.786;2023-03-14T06:23:20;12.43;;;11.13;;
7025;SDS011;3554;42.132;24.786;2023-03-14T06:25:47;16.80;;;11.43;;
7025;SDS011;3554;42.132;24.786;2023-03-14T06:28:15;20.93;;;13.97;;
7025;SDS011;3554;42.132;24.786;2023-03-14T06:30:42;18.87;;;12.83;;
7025;SDS011;3554;42.132;24.786;2023-03-14T06:33:09;18.80;;;13.13;;
7025;SDS011;3554;42.132;24.786;2023-03-14T06:35:35;13.43;;;12.03;;
7025;SDS011;3554;42.132;24.786;2023-03-14T06:38:02;20.47;;;12.93;;
7025;SDS011;3554;42.132;24.786;2023-03-14T06:40:29;15.27;;;12.47;;
7025;SDS011;3554;42.132;24.786;2023-03-14T06:42:56;18.43;;;13.43;;
7025;SDS011;3554;42.132;24.786;2023-03-14T06:45:24;16.93;;;13.43;;
7025;SDS011;3554;42.132;24.786;2023-03-14T06:47:51;16.90;;;13.43;;
7025;SDS011;3554;42.132;24.786;2023-03-14T06:50:18;17.63;;;13.33;;
7025;SDS011;3554;42.132;24.786;2023-03-14T06:52:47;14.17;;;12.70;;
7025;SDS011;3554;42.132;24.786;2023-03-14T06:55:14;21.83;;;14.63;;
7025;SDS011;3554;42.132;24.786;2023-03-14T06:57:40;19.20;;;13.43;;
7025;SDS011;3554;42.132;24.786;2023-03-14T07:00:09;21.43;;;13.53;;
7025;SDS011;3554;42.132;24.786;2023-03-14T07:02:38;18.53;;;11.83;;
7025;SDS011;3554;42.132;24.786;2023-03-14T07:05:06;15.73;;;11.70;;
7025;SDS011;3554;42.132;24.786;2023-03-14T07:07:35;12.13;;;10.83;;
7025;SDS011;3554;42.132;24.786;2023-03-14T07:10:02;10.90;;;7.80;;
7025;SDS011;3554;42.132;24.786;2023-03-14T07:12:29;9.40;;;7.57;;
7025;SDS011;3554;42.132;24.786;2023-03-14T07:14:56;9.80;;;7.07;;
7025;SDS011;3554;42.132;24.786;2023-03-14T07:17:23;7.70;;;6.17;;
7025;SDS011;3554;42.132;24.786;2023-03-14T07:19:51;6.53;;;5.93;;
7025;SDS011;3554;42.132;24.786;2023-03-14T07:22:17;9.53;;;6.00;;
7025;SDS011;3554;42.132;24.786;2023-03-14T07:24:44;5.90;;;5.60;;
7025;SDS011;3554;42.132;24.786;2023-03-14T07:27:11;7.13;;;5.30;;
7025;SDS011;3554;42.132;24.786;2023-03-14T07:29:38;8.17;;;6.40;;
7025;SDS011;3554;42.132;24.786;2023-03-14T07:32:04;6.40;;;5.50;;
7025;SDS011;3554;42.132;24.786;2023-03-14T07:34:31;6.13;;;5.60;;
7025;SDS011;3554;42.132;24.786;2023-03-14T07:36:59;5.73;;;5.30;;
7025;SDS011;3554;42.132;24.786;2023-03-14T07:39:26;5.00;;;4.70;;
7025;SDS011;3554;42.132;24.786;2023-03-14T07:41:53;4.27;;;3.97;;
7025;SDS011;3554;42.132;24.786;2023-03-14T07:44:19;4.77;;;4.43;;
7025;SDS011;3554;42.132;24.786;2023-03-14T07:46:46;5.53;;;5.07;;
7025;SDS011;3554;42.132;24.786;2023-03-14T07:49:13;4.93;;;4.57;;
7025;SDS011;3554;42.132;24.786;2023-03-14T07:51:40;5.07;;;4.57;;
7025;SDS011;3554;42.132;24.786;2023-03-14T07:54:10;5.47;;;4.97;;
7025;SDS011;3554;42.132;24.786;2023-03-14T07:56:37;5.77;;;5.37;;
7025;SDS011;3554;42.132;24.786;2023-03-14T07:59:03;5.77;;;5.37;;
7025;SDS011;3554;42.132;24.786;2023-03-14T08:01:30;4.50;;;4.30;;
7025;SDS011;3554;42.132;24.786;2023-03-14T08:03:57;5.00;;;4.53;;
7025;SDS011;3554;42.132;24.786;2023-03-14T08:06:24;7.50;;;6.63;;
7025;SDS011;3554;42.132;24.786;2023-03-14T08:08:50;4.70;;;4.40;;
7025;SDS011;3554;42.132;24.786;2023-03-14T08:11:19;5.70;;;5.20;;
7025;SDS011;3554;42.132;24.786;2023-03-14T08:13:45;5.80;;;5.30;;
7025;SDS011;3554;42.132;24.786;2023-03-14T08:16:14;5.00;;;4.60;;
7025;SDS011;3554;42.132;24.786;2023-03-14T08:18:42;5.37;;;4.60;;
7025;SDS011;3554;42.132;24.786;2023-03-14T08:21:09;5.53;;;5.03;;
7025;SDS011;3554;42.132;24.786;2023-03-14T08:23:36;5.03;;;4.10;;
7025;SDS011;3554;42.132;24.786;2023-03-14T08:26:02;5.93;;;4.50;;
7025;SDS011;3554;42.132;24.786;2023-03-14T08:28:31;4.43;;;3.93;;
7025;SDS011;3554;42.132;24.786;2023-03-14T08:30:58;5.47;;;4.60;;
7025;SDS011;3554;42.132;24.786;2023-03-14T08:33:26;7.47;;;4.37;;
7025;SDS011;3554;42.132;24.786;2023-03-14T08:35:54;5.20;;;4.77;;
7025;SDS011;3554;42.132;24.786;2023-03-14T08:38:21;10.87;;;4.97;;
7025;SDS011;3554;42.132;24.786;2023-03-14T08:40:48;4.70;;;4.40;;
7025;SDS011;3554;42.132;24.786;2023-03-14T08:43:15;5.23;;;4.90;;
7025;SDS011;3554;42.132;24.786;2023-03-14T08:45:43;5.00;;;4.47;;
7025;SDS011;3554;42.132;24.786;2023-03-14T08:48:10;7.83;;;4.47;;
7025;SDS011;3554;42.132;24.786;2023-03-14T08:50:36;7.00;;;4.53;;
7025;SDS011;3554;42.132;24.786;2023-03-14T08:53:03;8.67;;;5.07;;
7025;SDS011;3554;42.132;24.786;2023-03-14T08:55:30;4.87;;;4.57;;
7025;SDS011;3554;42.132;24.786;2023-03-14T08:57:57;4.20;;;3.93;;
7025;SDS011;3554;42.132;24.786;2023-03-14T09:00:23;7.23;;;4.53;;
7025;SDS011;3554;42.132;24.786;2023-03-14T09:02:51;7.07;;;4.63;;
7025;SDS011;3554;42.132;24.786;2023-03-14T09:05:18;5.20;;;4.80;;
7025;SDS011;3554;42.132;24.786;2023-03-14T09:07:45;5.57;;;4.57;;
7025;SDS011;3554;42.132;24.786;2023-03-14T09:10:12;5.33;;;5.03;;
7025;SDS011;3554;42.132;24.786;2023-03-14T09:12:38;5.83;;;5.30;;
7025;SDS011;3554;42.132;24.786;2023-03-14T09:15:06;5.33;;;4.93;;
7025;SDS011;3554;42.132;24.786;2023-03-14T09:17:33;4.93;;;4.53;;
7025;SDS011;3554;42.132;24.786;2023-03-14T09:20:02;5.03;;;4.73;;
7025;SDS011;3554;42.132;24.786;2023-03-14T09:22:31;5.17;;;4.77;;
7025;SDS011;3554;42.132;24.786;2023-03-14T09:24:58;4.73;;;4.43;;
7025;SDS011;3554;42.132;24.786;2023-03-14T09:27:25;5.23;;;4.70;;
7025;SDS011;3554;42.132;24.786;2023-03-14T09:29:52;5.30;;;4.90;;
7025;SDS011;3554;42.132;24.786;2023-03-14T09:32:18;8.47;;;5.87;;
7025;SDS011;3554;42.132;24.786;2023-03-14T09:34:45;5.00;;;4.60;;
7025;SDS011;3554;42.132;24.786;2023-03-14T09:37:13;5.50;;;5.13;;
7025;SDS011;3554;42.132;24.786;2023-03-14T09:39:41;4.70;;;4.47;;
7025;SDS011;3554;42.132;24.786;2023-03-14T09:42:08;5.97;;;4.80;;
7025;SDS011;3554;42.132;24.786;2023-03-14T09:44:42;4.37;;;4.07;;
7025;SDS011;3554;42.132;24.786;2023-03-14T09:47:17;4.10;;;3.80;;
7025;SDS011;3554;42.132;24.786;2023-03-14T09:49:45;4.23;;;4.03;;
7025;SDS011;3554;42.132;24.786;2023-03-14T09:52:14;4.83;;;4.53;;
7025;SDS011;3554;42.132;24.786;2023-03-14T09:54:44;3.70;;;3.40;;
7025;SDS011;3554;42.132;24.786;2023-03-14T09:57:14;10.87;;;3.80;;
7025;SDS011;3554;42.132;24.786;2023-03-14T09:59:43;5.07;;;4.67;;
7025;SDS011;3554;42.132;24.786;2023-03-14T10:02:14;4.40;;;4.20;;
7025;SDS011;3554;42.132;24.786;2023-03-14T10:04:44;5.17;;;4.70;;
7025;SDS011;3554;42.132;24.786;2023-03-14T10:07:14;7.97;;;4.90;;
7025;SDS011;3554;42.132;24.786;2023-03-14T10:09:44;5.50;;;5.10;;
7025;SDS011;3554;42.132;24.786;2023-03-14T10:12:11;4.80;;;4.50;;
7025;SDS011;3554;42.132;24.786;2023-03-14T10:14:44;5.57;;;4.77;;
7025;SDS011;3554;42.132;24.786;2023-03-14T10:17:13;4.77;;;4.37;;
7025;SDS011;3554;42.132;24.786;2023-03-14T10:19:51;5.10;;;4.60;;
7025;SDS011;3554;42.132;24.786;2023-03-14T10:22:21;5.57;;;5.20;;
7025;SDS011;3554;42.132;24.786;2023-03-14T10:24:51;8.33;;;5.40;;
7025;SDS011;3554;42.132;24.786;2023-03-14T10:27:21;5.97;;;5.50;;
7025;SDS011;3554;42.132;24.786;2023-03-14T10:29:53;5.17;;;4.87;;
7025;SDS011;3554;42.132;24.786;2023-03-14T10:32:22;4.07;;;3.73;;
7025;SDS011;3554;42.132;24.786;2023-03-14T10:35:11;3.87;;;3.67;;
7025;SDS011;3554;42.132;24.786;2023-03-14T10:37:51;5.13;;;4.83;;
7025;SDS011;3554;42.132;24.786;2023-03-14T10:40:24;5.23;;;4.83;;
7025;SDS011;3554;42.132;24.786;2023-03-14T10:42:53;6.50;;;6.00;;
7025;SDS011;3554;42.132;24.786;2023-03-14T10:45:31;4.10;;;3.77;;
7025;SDS011;3554;42.132;24.786;2023-03-14T10:48:05;4.63;;;4.43;;
7025;SDS011;3554;42.132;24.786;2023-03-14T10:50:47;4.20;;;3.70;;
7025;SDS011;3554;42.132;24.786;2023-03-14T10:53:17;4.03;;;3.73;;
7025;SDS011;3554;42.132;24.786;2023-03-14T10:55:44;3.70;;;3.50;;
7025;SDS011;3554;42.132;24.786;2023-03-14T10:58:21;4.43;;;4.03;;
7025;SDS011;3554;42.132;24.786;2023-03-14T11:00:51;3.80;;;3.50;;
7025;SDS011;3554;42.132;24.786;2023-03-14T11:03:26;3.47;;;3.27;;
7025;SDS011;3554;42.132;24.786;2023-03-14T11:05:57;3.77;;;3.47;;
7025;SDS011;3554;42.132;24.786;2023-03-14T11:08:32;5.50;;;4.87;;
7025;SDS011;3554;42.132;24.786;2023-03-14T11:11:07;6.97;;;3.33;;
7025;SDS011;3554;42.132;24.786;2023-03-14T11:13:39;3.77;;;3.57;;
7025;SDS011;3554;42.132;24.786;2023-03-14T11:16:14;4.50;;;3.97;;
7025;SDS011;3554;42.132;24.786;2023-03-14T11:18:51;4.17;;;2.80;;
7025;SDS011;3554;42.132;24.786;2023-03-14T11:21:30;4.20;;;2.60;;
7025;SDS011;3554;42.132;24.786;2023-03-14T11:24:08;3.43;;;3.13;;
7025;SDS011;3554;42.132;24.786;2023-03-14T11:26:48;3.43;;;3.10;;
7025;SDS011;3554;42.132;24.786;2023-03-14T11:29:20;3.23;;;3.03;;
7025;SDS011;3554;42.132;24.786;2023-03-14T11:31:54;3.43;;;3.13;;
7025;SDS011;3554;42.132;24.786;2023-03-14T11:34:25;3.13;;;2.90;;
7025;SDS011;3554;42.132;24.786;2023-03-14T11:36:56;3.30;;;3.10;;
7025;SDS011;3554;42.132;24.786;2023-03-14T11:39:34;3.30;;;3.03;;
7025;SDS011;3554;42.132;24.786;2023-03-14T11:42:07;3.07;;;2.87;;
7025;SDS011;3554;42.132;24.786;2023-03-14T11:44:37;3.43;;;3.23;;
7025;SDS011;3554;42.132;24.786;2023-03-14T11:47:05;3.67;;;3.27;;
7025;SDS011;3554;42.132;24.786;2023-03-14T11:49:38;3.30;;;3.00;;
7025;SDS011;3554;42.132;24.786;2023-03-14T11:52:10;7.03;;;3.17;;
7025;SDS011;3554;42.132;24.786;2023-03-14T11:54:44;2.90;;;2.80;;
7025;SDS011;3554;42.132;24.786;2023-03-14T11:57:15;3.83;;;3.63;;
7025;SDS011;3554;42.132;24.786;2023-03-14T11:59:47;3.50;;;3.30;;
7025;SDS011;3554;42.132;24.786;2023-03-14T12:02:21;3.93;;;3.50;;
7025;SDS011;3554;42.132;24.786;2023-03-14T12:04:53;4.23;;;3.83;;
7025;SDS011;3554;42.132;24.786;2023-03-14T12:07:44;6.60;;;3.33;;
7025;SDS011;3554;42.132;24.786;2023-03-14T12:10:30;3.77;;;3.57;;
7025;SDS011;3554;42.132;24.786;2023-03-14T12:13:03;5.30;;;3.80;;
7025;SDS011;3554;42.132;24.786;2023-03-14T12:15:30;5.43;;;3.87;;
7025;SDS011;3554;42.132;24.786;2023-03-14T12:17:59;3.73;;;3.27;;
7025;SDS011;3554;42.132;24.786;2023-03-14T12:20:26;4.63;;;3.93;;
7025;SDS011;3554;42.132;24.786;2023-03-14T12:22:53;3.80;;;3.60;;
7025;SDS011;3554;42.132;24.786;2023-03-14T12:25:23;4.63;;;3.70;;
7025;SDS011;3554;42.132;24.786;2023-03-14T12:30:46;4.67;;;4.37;;
7025;SDS011;3554;42.132;24.786;2023-03-14T12:36:02;3.97;;;3.67;;
7025;SDS011;3554;42.132;24.786;2023-03-14T12:38:42;4.00;;;3.60;;
7025;SDS011;3554;42.132;24.786;2023-03-14T12:41:17;2.80;;;2.70;;
7025;SDS011;3554;42.132;24.786;2023-03-14T12:43:50;4.60;;;3.17;;
7025;SDS011;3554;42.132;24.786;2023-03-14T12:46:21;5.10;;;4.10;;
7025;SDS011;3554;42.132;24.786;2023-03-14T12:48:54;3.93;;;3.57;;
7025;SDS011;3554;42.132;24.786;2023-03-14T12:51:27;3.67;;;2.90;;
7025;SDS011;3554;42.132;24.786;2023-03-14T12:54:03;3.30;;;2.97;;
7025;SDS011;3554;42.132;24.786;2023-03-14T12:56:54;3.93;;;3.70;;
7025;SDS011;3554;42.132;24.786;2023-03-14T12:59:42;4.37;;;3.97;;
7025;SDS011;3554;42.132;24.786;2023-03-14T13:02:24;3.30;;;3.10;;
7025;SDS011;3554;42.132;24.786;2023-03-14T13:04:59;3.70;;;3.40;;
7025;SDS011;3554;42.132;24.786;2023-03-14T13:07:33;3.07;;;2.93;;
7025;SDS011;3554;42.132;24.786;2023-03-14T13:10:05;4.10;;;3.87;;
7025;SDS011;3554;42.132;24.786;2023-03-14T13:12:47;3.47;;;3.27;;
7025;SDS011;3554;42.132;24.786;2023-03-14T13:15:19;3.87;;;3.57;;
7025;SDS011;3554;42.132;24.786;2023-03-14T13:17:49;3.97;;;3.77;;
7025;SDS011;3554;42.132;24.786;2023-03-14T13:20:22;3.63;;;3.40;;
7025;SDS011;3554;42.132;24.786;2023-03-14T13:22:53;4.10;;;3.90;;
7025;SDS011;3554;42.132;24.786;2023-03-14T13:25:20;4.03;;;3.73;;
7025;SDS011;3554;42.132;24.786;2023-03-14T13:27:48;3.80;;;3.60;;
7025;SDS011;3554;42.132;24.786;2023-03-14T13:30:16;4.23;;;3.93;;
7025;SDS011;3554;42.132;24.786;2023-03-14T13:32:48;3.53;;;3.27;;
7025;SDS011;3554;42.132;24.786;2023-03-14T13:35:20;4.50;;;4.20;;
7025;SDS011;3554;42.132;24.786;2023-03-14T13:37:53;3.57;;;3.37;;
7025;SDS011;3554;42.132;24.786;2023-03-14T13:40:24;3.50;;;3.20;;
7025;SDS011;3554;42.132;24.786;2023-03-14T13:43:01;3.83;;;3.53;;
7025;SDS011;3554;42.132;24.786;2023-03-14T13:45:31;3.53;;;3.23;;
7025;SDS011;3554;42.132;24.786;2023-03-14T13:48:11;3.90;;;3.60;;
7025;SDS011;3554;42.132;24.786;2023-03-14T13:50:44;3.63;;;3.40;;
7025;SDS011;3554;42.132;24.786;2023-03-14T13:53:12;5.90;;;3.40;;
7025;SDS011;3554;42.132;24.786;2023-03-14T13:55:39;3.40;;;3.20;;
7025;SDS011;3554;42.132;24.786;2023-03-14T13:58:10;3.53;;;3.30;;
7025;SDS011;3554;42.132;24.786;2023-03-14T14:00:49;3.30;;;3.10;;
7025;SDS011;3554;42.132;24.786;2023-03-14T14:03:23;3.23;;;3.03;;
7025;SDS011;3554;42.132;24.786;2023-03-14T14:05:50;6.50;;;3.50;;
7025;SDS011;3554;42.132;24.786;2023-03-14T14:08:17;3.67;;;3.37;;
7025;SDS011;3554;42.132;24.786;2023-03-14T14:10:44;4.43;;;3.97;;
7025;SDS011;3554;42.132;24.786;2023-03-14T14:13:14;3.30;;;3.07;;
7025;SDS011;3554;42.132;24.786;2023-03-14T14:15:48;3.93;;;3.60;;
7025;SDS011;3554;42.132;24.786;2023-03-14T14:18:18;6.87;;;3.93;;
7025;SDS011;3554;42.132;24.786;2023-03-14T14:20:50;5.03;;;3.23;;
7025;SDS011;3554;42.132;24.786;2023-03-14T14:23:18;3.30;;;2.83;;
7025;SDS011;3554;42.132;24.786;2023-03-14T14:25:50;3.57;;;2.93;;
7025;SDS011;3554;42.132;24.786;2023-03-14T14:28:21;3.20;;;2.90;;
7025;SDS011;3554;42.132;24.786;2023-03-14T14:31:04;3.37;;;3.10;;
7025;SDS011;3554;42.132;24.786;2023-03-14T14:33:39;2.87;;;2.67;;
7025;SDS011;3554;42.132;24.786;2023-03-14T14:38:51;5.70;;;3.57;;
7025;SDS011;3554;42.132;24.786;2023-03-14T14:41:18;3.87;;;3.57;;
7025;SDS011;3554;42.132;24.786;2023-03-14T14:43:46;4.97;;;3.70;;
7025;SDS011;3554;42.132;24.786;2023-03-14T14:46:16;4.30;;;4.00;;
7025;SDS011;3554;42.132;24.786;2023-03-14T14:48:45;4.53;;;4.07;;
7025;SDS011;3554;42.132;24.786;2023-03-14T14:51:22;3.40;;;3.20;;
7025;SDS011;3554;42.132;24.786;2023-03-14T14:53:59;9.60;;;4.80;;
7025;SDS011;3554;42.132;24.786;2023-03-14T14:56:29;4.73;;;4.20;;
7025;SDS011;3554;42.132;24.786;2023-03-14T14:58:57;4.97;;;4.57;;
7025;SDS011;3554;42.132;24.786;2023-03-14T15:01:30;4.83;;;4.43;;
7025;SDS011;3554;42.132;24.786;2023-03-14T15:04:00;3.80;;;3.60;;
7025;SDS011;3554;42.132;24.786;2023-03-14T15:06:28;4.63;;;4.33;;
7025;SDS011;3554;42.132;24.786;2023-03-14T15:08:57;3.53;;;3.33;;
7025;SDS011;3554;42.132;24.786;2023-03-14T15:11:24;4.43;;;4.07;;
7025;SDS011;3554;42.132;24.786;2023-03-14T15:13:52;9.67;;;4.00;;
7025;SDS011;3554;42.132;24.786;2023-03-14T15:16:20;5.57;;;3.90;;
7025;SDS011;3554;42.132;24.786;2023-03-14T15:18:52;3.83;;;3.63;;
7025;SDS011;3554;42.132;24.786;2023-03-14T15:21:21;5.60;;;3.53;;
7025;SDS011;3554;42.132;24.786;2023-03-14T15:23:48;4.30;;;3.93;;